Time;durP1;ratioP1;P1;durP2;ratioP2;P2;SDS_P1;SDS_P2;PMS_P1;PMS_P2;Temp;Humidity;BMP_temperature;BMP_pressure;BME280_temperature;BME280_humidity;BME280_pressure;Samples;Min_cycle;Max_cycle;Signal;HPM_P1;HPM_P2
2022/11/24 00:01:30;;;;;;;14.63;8.60;;;8.20;99.90;;;;;;5046939;28;20052;-77
2022/11/24 00:04:01;;;;;;;12.85;8.18;;;8.10;99.90;;;;;;5043477;28;20044;-77
2022/11/24 00:06:28;;;;;;;14.75;8.45;;;8.10;99.90;;;;;;5042777;28;20084;-77
2022/11/24 00:08:54;;;;;;;15.55;8.63;;;8.10;99.90;;;;;;5046563;28;20052;-77
2022/11/24 00:11:23;;;;;;;14.30;8.90;;;8.00;99.90;;;;;;5044655;28;20488;-77
2022/11/24 00:13:49;;;;;;;11.77;8.85;;;7.90;99.90;;;;;;5046281;28;20045;-76
2022/11/24 00:16:20;;;;;;;12.13;8.40;;;7.90;99.90;;;;;;5043994;28;20051;-77
2022/11/24 00:18:48;;;;;;;14.93;8.23;;;7.90;99.90;;;;;;5045525;28;20041;-77
2022/11/24 00:21:16;;;;;;;19.77;9.30;;;7.80;99.90;;;;;;5077491;27;20802;-77
2022/11/24 00:23:42;;;;;;;14.40;7.90;;;7.80;99.90;;;;;;5046640;28;20048;-77
2022/11/24 00:26:12;;;;;;;13.60;7.88;;;7.80;99.90;;;;;;5047695;28;22109;-77
2022/11/24 00:28:39;;;;;;;12.05;7.90;;;7.70;99.90;;;;;;5044516;28;20068;-76
2022/11/24 00:31:15;;;;;;;18.08;8.70;;;7.80;99.90;;;;;;5046619;28;20510;-77
2022/11/24 00:33:41;;;;;;;11.02;7.95;;;7.70;99.90;;;;;;5043279;28;20064;-77
2022/11/24 00:36:06;;;;;;;12.02;7.28;;;7.70;99.90;;;;;;5079156;27;20048;-76
2022/11/24 00:38:32;;;;;;;11.23;8.45;;;7.60;99.90;;;;;;5043715;28;20049;-77
2022/11/24 00:40:58;;;;;;;13.20;8.50;;;7.60;99.90;;;;;;5045107;28;20198;-77
2022/11/24 00:43:23;;;;;;;15.45;10.07;;;7.60;99.90;;;;;;5045790;28;20072;-77
2022/11/24 00:45:49;;;;;;;12.52;7.88;;;7.60;99.90;;;;;;5044523;28;20053;-77
2022/11/24 00:48:15;;;;;;;15.18;8.35;;;7.60;99.90;;;;;;5044460;28;20075;-77
2022/11/24 00:50:40;;;;;;;17.83;7.82;;;7.50;99.90;;;;;;5044262;28;20093;-77
2022/11/24 00:53:06;;;;;;;15.35;7.93;;;8.00;99.90;;;;;;5044854;28;20048;-76
2022/11/24 00:55:32;;;;;;;15.77;8.65;;;7.50;99.90;;;;;;5045017;28;20130;-76
2022/11/24 00:57:57;;;;;;;11.27;7.50;;;7.50;99.90;;;;;;5044512;28;20514;-77
2022/11/24 01:00:23;;;;;;;12.68;7.80;;;7.40;99.90;;;;;;5045463;28;20106;-77
2022/11/24 01:02:50;;;;;;;10.30;7.22;;;7.40;99.90;;;;;;5040283;28;20056;-77
2022/11/24 01:05:15;;;;;;;13.13;8.10;;;7.40;99.90;;;;;;5045940;28;20087;-77
2022/11/24 01:07:41;;;;;;;16.38;8.55;;;7.40;99.90;;;;;;5043905;28;20559;-78
2022/11/24 01:10:07;;;;;;;14.63;7.57;;;7.40;99.90;;;;;;5045858;28;20048;-77
2022/11/24 01:12:34;;;;;;;13.05;7.10;;;7.40;99.90;;;;;;5042396;28;20052;-77
2022/11/24 01:14:59;;;;;;;11.98;6.80;;;7.40;99.90;;;;;;5043285;28;20154;-78
2022/11/24 01:17:26;;;;;;;15.70;6.45;;;7.40;99.90;;;;;;5043733;28;20080;-77
2022/11/24 01:19:52;;;;;;;20.17;8.40;;;7.40;99.90;;;;;;5042828;28;20178;-77
2022/11/24 01:22:17;;;;;;;15.77;7.25;;;7.30;99.90;;;;;;5044689;28;20838;-77
2022/11/24 01:24:44;;;;;;;15.23;8.60;;;7.30;99.90;;;;;;5044492;28;20080;-77
2022/11/24 01:27:10;;;;;;;18.15;7.05;;;7.30;99.90;;;;;;5044391;28;20886;-77
2022/11/24 01:29:36;;;;;;;12.65;7.47;;;7.30;99.90;;;;;;5045652;28;20056;-77
2022/11/24 01:32:01;;;;;;;11.45;6.63;;;7.30;99.90;;;;;;5064170;28;20135;-77
2022/11/24 01:34:27;;;;;;;19.60;7.68;;;7.30;99.90;;;;;;5043206;28;21885;-77
2022/11/24 01:36:53;;;;;;;13.32;6.13;;;7.30;99.90;;;;;;5044364;28;20791;-77
2022/11/24 01:39:18;;;;;;;15.38;7.20;;;7.30;99.90;;;;;;5047160;28;20191;-77
2022/11/24 01:41:44;;;;;;;16.10;6.75;;;7.20;99.90;;;;;;5043668;28;20044;-77
2022/11/24 01:44:28;;;;;;;16.63;6.55;;;7.30;99.90;;;;;;5043849;28;20072;-77
2022/11/24 01:47:01;;;;;;;13.95;6.93;;;7.20;99.90;;;;;;5045192;28;20280;-77
2022/11/24 01:49:40;;;;;;;10.95;6.47;;;7.30;99.90;;;;;;5043927;28;20089;-77
2022/11/24 01:52:25;;;;;;;15.52;7.00;;;7.20;99.90;;;;;;5045727;28;20174;-77
2022/11/24 01:54:57;;;;;;;19.23;6.65;;;7.30;99.90;;;;;;5041578;28;20048;-77
2022/11/24 01:57:27;;;;;;;19.53;7.10;;;7.20;99.90;;;;;;5045505;28;20412;-77
2022/11/24 02:00:00;;;;;;;18.08;7.35;;;7.30;99.90;;;;;;5042616;28;21106;-77
2022/11/24 02:02:28;;;;;;;17.20;6.05;;;7.30;99.90;;;;;;5044420;28;20094;-77
2022/11/24 02:04:57;;;;;;;10.20;6.25;;;7.40;99.90;;;;;;5038918;28;20078;-77
2022/11/24 02:07:24;;;;;;;26.45;7.80;;;7.50;99.90;;;;;;5043774;28;20115;-77
2022/11/24 02:10:08;;;;;;;16.10;6.28;;;7.50;99.90;;;;;;5043426;28;20086;-77
2022/11/24 02:12:36;;;;;;;15.50;6.45;;;7.50;99.90;;;;;;5077612;28;20478;-77
2022/11/24 02:15:02;;;;;;;12.55;6.05;;;7.60;99.90;;;;;;5047568;28;20045;-77
2022/11/24 02:17:28;;;;;;;16.63;6.45;;;7.70;99.90;;;;;;5043068;28;20047;-77
2022/11/24 02:19:59;;;;;;;12.32;6.13;;;7.70;99.90;;;;;;5039812;28;20048;-77
2022/11/24 02:23:00;;;;;;;12.73;6.07;;;7.60;99.90;;;;;;5043378;28;20048;-77
2022/11/24 02:25:40;;;;;;;16.92;7.00;;;7.60;99.90;;;;;;5041847;28;20049;-77
2022/11/24 02:28:11;;;;;;;21.35;6.53;;;7.60;99.90;;;;;;5044367;28;20045;-77
2022/11/24 02:30:36;;;;;;;14.20;5.70;;;7.60;99.90;;;;;;5043475;28;20599;-77
2022/11/24 02:33:02;;;;;;;13.95;5.40;;;7.60;99.90;;;;;;5043791;28;20104;-76
2022/11/24 02:35:28;;;;;;;11.60;4.47;;;7.50;99.90;;;;;;5058649;28;20052;-77
2022/11/24 02:37:54;;;;;;;13.80;5.90;;;7.70;99.90;;;;;;5039687;28;20044;-77
2022/11/24 02:40:24;;;;;;;16.58;6.45;;;7.50;99.90;;;;;;5043845;28;20379;-77
2022/11/24 02:42:56;;;;;;;12.55;5.78;;;7.50;99.90;;;;;;5043136;28;20076;-77
2022/11/24 02:45:23;;;;;;;13.10;5.60;;;7.50;99.90;;;;;;5043691;28;20044;-77
2022/11/24 02:47:49;;;;;;;14.73;6.05;;;7.40;99.90;;;;;;5040363;28;20124;-77
2022/11/24 02:50:15;;;;;;;11.82;5.00;;;7.40;99.90;;;;;;5040120;28;20053;-77
2022/11/24 02:52:41;;;;;;;8.48;4.95;;;7.40;99.90;;;;;;5043483;28;20044;-77
2022/11/24 02:55:07;;;;;;;15.20;5.38;;;7.90;99.90;;;;;;5075461;28;20053;-76
2022/11/24 02:57:32;;;;;;;10.38;5.57;;;7.40;99.90;;;;;;5042645;28;20071;-77
2022/11/24 02:59:58;;;;;;;23.45;7.00;;;7.40;99.90;;;;;;5042907;28;20052;-77
2022/11/24 03:02:24;;;;;;;11.57;5.10;;;7.40;99.90;;;;;;5043806;28;20040;-77
2022/11/24 03:04:49;;;;;;;16.45;5.07;;;7.40;99.90;;;;;;5042988;28;20181;-77
2022/11/24 03:07:15;;;;;;;10.88;4.75;;;7.40;99.90;;;;;;5042944;28;20044;-77
2022/11/24 03:09:41;;;;;;;12.50;6.32;;;7.40;99.90;;;;;;5040793;28;20040;-77
2022/11/24 03:12:07;;;;;;;13.75;4.97;;;7.40;99.90;;;;;;5039190;28;20063;-77
2022/11/24 03:14:32;;;;;;;15.70;5.80;;;7.40;99.90;;;;;;5042921;28;20056;-77
2022/11/24 03:16:58;;;;;;;14.18;5.13;;;7.40;99.90;;;;;;5041308;28;20122;-77
2022/11/24 03:19:24;;;;;;;11.80;5.95;;;7.40;99.90;;;;;;5041071;28;20106;-77
2022/11/24 03:21:49;;;;;;;12.40;5.40;;;7.40;99.90;;;;;;5075720;28;20056;-77
2022/11/24 03:24:15;;;;;;;12.88;5.00;;;7.40;99.90;;;;;;5041040;28;20729;-77
2022/11/24 03:26:41;;;;;;;11.55;5.15;;;7.40;99.90;;;;;;5046371;28;20056;-76
2022/11/24 03:29:07;;;;;;;13.02;5.07;;;7.40;99.90;;;;;;5042332;28;20056;-76
2022/11/24 03:31:33;;;;;;;13.23;5.68;;;7.40;99.90;;;;;;5043137;28;20146;-77
2022/11/24 03:33:59;;;;;;;17.15;5.50;;;7.50;99.90;;;;;;5041673;28;20052;-76
2022/11/24 03:36:25;;;;;;;23.70;5.97;;;7.50;99.90;;;;;;5042917;28;20048;-76
2022/11/24 03:38:51;;;;;;;8.95;4.85;;;7.50;99.90;;;;;;5042419;28;20086;-76
2022/11/24 03:41:16;;;;;;;12.73;4.93;;;7.50;99.90;;;;;;5053796;28;20774;-76
2022/11/24 03:43:42;;;;;;;8.63;4.13;;;7.60;99.90;;;;;;5044979;28;20048;-76
2022/11/24 03:46:08;;;;;;;16.20;5.50;;;7.60;99.90;;;;;;5045714;28;20087;-77
2022/11/24 03:48:34;;;;;;;14.48;6.10;;;7.60;99.90;;;;;;5079142;28;20154;-77
2022/11/24 03:51:02;;;;;;;16.27;5.82;;;7.70;99.90;;;;;;5046881;28;20082;-76
2022/11/24 03:53:29;;;;;;;10.68;4.97;;;7.70;99.90;;;;;;5047432;28;20121;-77
2022/11/24 03:55:56;;;;;;;9.85;4.45;;;7.60;99.90;;;;;;5045727;28;20107;-76
2022/11/24 03:58:22;;;;;;;19.70;5.80;;;7.60;99.90;;;;;;5046149;28;20037;-76
2022/11/24 04:00:49;;;;;;;11.23;5.35;;;7.60;99.90;;;;;;5046339;28;20092;-76
2022/11/24 04:03:15;;;;;;;12.90;4.75;;;7.50;99.90;;;;;;5046342;28;20480;-76
2022/11/24 04:05:41;;;;;;;11.30;5.68;;;7.50;99.90;;;;;;5045278;28;20060;-76
2022/11/24 04:08:07;;;;;;;9.70;5.22;;;7.50;99.90;;;;;;5045669;28;20044;-76
2022/11/24 04:10:35;;;;;;;16.35;5.40;;;7.50;99.90;;;;;;5045771;28;20055;-77
2022/11/24 04:13:08;;;;;;;9.50;4.68;;;7.40;99.90;;;;;;5041370;28;20758;-77
2022/11/24 04:15:36;;;;;;;13.73;5.68;;;7.40;99.90;;;;;;5044976;28;20075;-77
2022/11/24 04:18:02;;;;;;;12.57;4.55;;;7.40;99.90;;;;;;5046439;28;20138;-77
2022/11/24 04:20:28;;;;;;;14.85;5.20;;;7.30;99.90;;;;;;5045142;28;20056;-77
2022/11/24 04:22:53;;;;;;;10.00;4.25;;;7.30;99.90;;;;;;5046988;28;20562;-76
2022/11/24 04:25:19;;;;;;;10.65;4.47;;;7.30;99.90;;;;;;5043901;28;20261;-77
2022/11/24 04:27:49;;;;;;;14.57;5.57;;;7.30;99.90;;;;;;5045707;28;20069;-77
2022/11/24 04:30:14;;;;;;;9.80;4.72;;;7.30;99.90;;;;;;5043894;28;20056;-76
2022/11/24 04:32:40;;;;;;;12.07;4.68;;;7.30;99.90;;;;;;5045642;28;20048;-76
2022/11/24 04:35:06;;;;;;;13.85;5.35;;;7.20;99.90;;;;;;5042566;28;21316;-77
2022/11/24 04:37:33;;;;;;;13.82;5.05;;;7.20;99.90;;;;;;5045803;28;20052;-76
2022/11/24 04:39:59;;;;;;;9.35;3.95;;;7.20;99.90;;;;;;5041515;28;20862;-76
2022/11/24 04:42:24;;;;;;;14.60;5.22;;;7.20;99.90;;;;;;5046186;28;20167;-76
2022/11/24 04:44:50;;;;;;;12.38;4.20;;;6.50;99.90;;;;;;5043563;28;20875;-76
2022/11/24 04:47:19;;;;;;;9.60;3.58;;;7.20;99.90;;;;;;5044616;28;20154;-76
2022/11/24 04:49:49;;;;;;;17.30;6.03;;;7.20;99.90;;;;;;5043926;28;20040;-76
2022/11/24 04:52:16;;;;;;;9.07;3.95;;;7.20;99.90;;;;;;5046275;28;20118;-76
2022/11/24 04:54:42;;;;;;;9.07;3.55;;;7.10;99.90;;;;;;5044955;28;20048;-76
2022/11/24 04:57:18;;;;;;;6.65;3.80;;;7.10;99.90;;;;;;5045867;28;20077;-76
2022/11/24 04:59:44;;;;;;;12.02;4.57;;;7.10;99.90;;;;;;5042039;28;20514;-76
2022/11/24 05:02:10;;;;;;;30.50;5.95;;;7.10;99.90;;;;;;5077364;27;20078;-76
2022/11/24 05:04:36;;;;;;;7.65;4.43;;;7.10;99.90;;;;;;5043409;28;20043;-77
2022/11/24 05:07:01;;;;;;;16.02;5.97;;;7.10;99.90;;;;;;5044965;28;20055;-76
2022/11/24 05:09:27;;;;;;;14.00;5.22;;;7.00;99.90;;;;;;5044050;28;20052;-76
2022/11/24 05:11:53;;;;;;;17.20;5.15;;;7.10;99.90;;;;;;5042102;28;20044;-76
2022/11/24 05:14:18;;;;;;;15.30;4.10;;;7.00;99.90;;;;;;5042227;28;20041;-76
2022/11/24 05:16:44;;;;;;;7.95;4.07;;;7.00;99.90;;;;;;5044795;28;21992;-77
2022/11/24 05:19:10;;;;;;;8.30;3.28;;;7.00;99.90;;;;;;5043927;28;20163;-77
2022/11/24 05:21:35;;;;;;;16.27;5.45;;;7.00;99.90;;;;;;5043404;28;20076;-76
2022/11/24 05:24:01;;;;;;;12.50;4.05;;;7.00;99.90;;;;;;5043796;28;20103;-76
2022/11/24 05:26:27;;;;;;;12.95;3.90;;;7.00;99.90;;;;;;5042895;28;20109;-76
2022/11/24 05:28:53;;;;;;;18.30;5.20;;;7.00;99.90;;;;;;5042402;28;20107;-76
2022/11/24 05:31:19;;;;;;;11.60;4.18;;;7.00;99.90;;;;;;5043647;28;21173;-76
2022/11/24 05:33:44;;;;;;;8.73;3.67;;;6.80;99.90;;;;;;5042280;28;20129;-76
2022/11/24 05:38:55;;;;;;;10.68;3.67;;;7.00;99.90;;;;;;5041544;28;20160;-76
2022/11/24 05:41:20;;;;;;;9.93;3.80;;;7.00;99.90;;;;;;5042907;28;20368;-76
2022/11/24 05:43:46;;;;;;;14.98;4.18;;;7.20;99.90;;;;;;5042734;28;20075;-76
2022/11/24 05:46:12;;;;;;;8.98;3.75;;;6.90;99.90;;;;;;5042366;28;20129;-76
2022/11/24 05:48:37;;;;;;;10.40;6.05;;;7.10;99.90;;;;;;5039532;28;20168;-76
2022/11/24 05:51:03;;;;;;;9.80;4.50;;;6.90;99.90;;;;;;5041926;28;20052;-76
2022/11/24 05:53:29;;;;;;;12.05;4.10;;;6.90;99.90;;;;;;5042172;28;20080;-76
2022/11/24 05:55:54;;;;;;;7.07;3.50;;;6.90;99.90;;;;;;5043636;28;20068;-75
2022/11/24 05:58:20;;;;;;;8.40;3.65;;;6.90;99.90;;;;;;5041723;28;20049;-76
2022/11/24 06:00:45;;;;;;;11.55;4.43;;;6.90;99.90;;;;;;5042270;28;20037;-76
2022/11/24 06:03:11;;;;;;;10.63;4.20;;;6.90;99.90;;;;;;5041965;28;20048;-76
2022/11/24 06:05:37;;;;;;;10.27;3.53;;;6.90;99.90;;;;;;5041569;28;20055;-76
2022/11/24 06:08:03;;;;;;;9.07;4.10;;;6.90;99.90;;;;;;5044331;28;20046;-76
2022/11/24 06:10:29;;;;;;;13.02;3.38;;;6.80;99.90;;;;;;5042057;28;20049;-76
2022/11/24 06:12:55;;;;;;;13.30;4.15;;;6.80;99.90;;;;;;5041763;28;20044;-76
2022/11/24 06:15:21;;;;;;;8.75;4.03;;;6.90;99.90;;;;;;5042221;28;20048;-75
2022/11/24 06:17:54;;;;;;;12.88;3.78;;;6.80;99.90;;;;;;5043160;28;20799;-76
2022/11/24 06:20:20;;;;;;;17.30;4.82;;;6.90;99.90;;;;;;5043417;28;20082;-76
2022/11/24 06:22:47;;;;;;;10.65;4.15;;;6.80;99.90;;;;;;5039911;28;20284;-76
2022/11/24 06:25:13;;;;;;;10.55;3.50;;;6.80;99.90;;;;;;5043342;28;20910;-76
2022/11/24 06:27:38;;;;;;;13.95;4.50;;;6.80;99.90;;;;;;5040537;28;20063;-75
2022/11/24 06:30:05;;;;;;;17.80;4.57;;;6.80;99.90;;;;;;5042451;28;20133;-76
2022/11/24 06:32:30;;;;;;;14.98;4.90;;;6.80;99.90;;;;;;5042113;28;20067;-76
2022/11/24 06:34:56;;;;;;;9.00;4.32;;;6.80;99.90;;;;;;5041488;28;20076;-76
2022/11/24 06:37:22;;;;;;;9.07;3.85;;;6.90;99.90;;;;;;5042726;28;20053;-76
2022/11/24 06:39:48;;;;;;;10.88;4.05;;;6.80;99.90;;;;;;5042935;28;20055;-76
2022/11/24 06:42:17;;;;;;;8.10;4.20;;;6.80;99.90;;;;;;5043525;28;20130;-76
2022/11/24 06:44:45;;;;;;;8.65;4.05;;;6.80;99.90;;;;;;5044032;28;20267;-75
2022/11/24 06:47:10;;;;;;;11.50;3.45;;;6.80;99.90;;;;;;5040169;28;20107;-76
2022/11/24 06:49:36;;;;;;;10.82;4.20;;;6.80;99.90;;;;;;5041568;28;20040;-76
2022/11/24 06:52:02;;;;;;;7.07;3.58;;;6.80;99.90;;;;;;5042033;28;20044;-75
2022/11/24 06:54:27;;;;;;;10.02;4.07;;;6.80;99.90;;;;;;5041455;28;20818;-76
2022/11/24 06:56:57;;;;;;;14.65;3.75;;;6.80;99.90;;;;;;5039730;28;20251;-76
2022/11/24 06:59:25;;;;;;;10.75;4.10;;;6.90;99.90;;;;;;5040443;28;20051;-76
2022/11/24 07:01:51;;;;;;;11.63;4.88;;;6.90;99.90;;;;;;5042608;28;20057;-76
2022/11/24 07:04:17;;;;;;;9.07;3.47;;;6.90;99.90;;;;;;5042618;28;20306;-76
2022/11/24 07:06:43;;;;;;;14.18;4.25;;;6.80;99.90;;;;;;5040985;28;20421;-75
2022/11/24 07:09:10;;;;;;;6.88;4.00;;;6.90;99.90;;;;;;5041615;28;20106;-76
2022/11/24 07:11:36;;;;;;;11.73;4.18;;;6.90;99.90;;;;;;5042530;28;20045;-76
2022/11/24 07:14:03;;;;;;;9.75;4.05;;;6.80;99.90;;;;;;5047036;28;20063;-76
2022/11/24 07:16:30;;;;;;;13.52;4.63;;;6.90;99.90;;;;;;5045066;28;20056;-76
2022/11/24 07:18:56;;;;;;;21.08;5.50;;;6.90;99.90;;;;;;5045920;28;20040;-76
2022/11/24 07:21:23;;;;;;;15.60;5.07;;;6.90;99.90;;;;;;5043926;28;20077;-76
2022/11/24 07:23:53;;;;;;;10.25;5.00;;;7.50;99.90;;;;;;5045752;28;20130;-76
2022/11/24 07:26:20;;;;;;;9.95;4.95;;;7.00;99.90;;;;;;5045827;28;20048;-77
2022/11/24 07:28:45;;;;;;;9.10;4.57;;;7.40;99.90;;;;;;5046123;28;20536;-77
2022/11/24 07:31:14;;;;;;;12.90;5.38;;;7.10;99.90;;;;;;5044946;28;20101;-77
2022/11/24 07:33:40;;;;;;;14.13;4.85;;;7.10;99.90;;;;;;5044735;28;20067;-77
2022/11/24 07:36:07;;;;;;;10.77;4.85;;;7.10;99.90;;;;;;5044247;28;20041;-78
2022/11/24 07:38:34;;;;;;;12.57;4.28;;;7.00;99.90;;;;;;5044777;28;20159;-78
2022/11/24 07:41:05;;;;;;;11.02;4.63;;;7.00;99.90;;;;;;5043250;28;20102;-79
2022/11/24 07:43:32;;;;;;;9.13;4.47;;;7.00;99.90;;;;;;5077174;28;20041;-78
2022/11/24 07:45:58;;;;;;;8.40;4.40;;;7.00;99.90;;;;;;5045066;28;20056;-78
2022/11/24 07:48:24;;;;;;;11.50;4.30;;;7.00;99.90;;;;;;5045283;28;20051;-78
2022/11/24 07:50:49;;;;;;;11.82;4.57;;;6.90;99.90;;;;;;5043735;28;20491;-78
2022/11/24 07:53:15;;;;;;;12.07;4.70;;;7.00;99.90;;;;;;5044289;28;20101;-78
2022/11/24 07:55:41;;;;;;;11.90;5.35;;;7.00;99.90;;;;;;5044330;28;20051;-78
2022/11/24 07:58:07;;;;;;;17.83;5.18;;;7.00;99.90;;;;;;5044184;28;20547;-78
2022/11/24 08:00:32;;;;;;;13.70;4.47;;;7.10;99.90;;;;;;5044934;28;20056;-77
2022/11/24 08:02:58;;;;;;;18.48;5.60;;;7.00;99.90;;;;;;5045574;28;20567;-77
2022/11/24 08:05:24;;;;;;;10.50;4.78;;;7.00;99.90;;;;;;5041464;28;20044;-78
2022/11/24 08:07:49;;;;;;;10.75;4.15;;;6.90;99.90;;;;;;5045711;28;20115;-78
2022/11/24 08:10:16;;;;;;;7.32;3.70;;;6.90;99.90;;;;;;5043692;28;20135;-78
2022/11/24 08:12:41;;;;;;;9.18;4.80;;;7.00;99.90;;;;;;5045084;28;20060;-78
2022/11/24 08:15:08;;;;;;;10.50;4.60;;;6.90;99.90;;;;;;5046039;28;20048;-78
2022/11/24 08:17:34;;;;;;;10.18;4.53;;;7.00;99.90;;;;;;5047407;28;20049;-77
2022/11/24 08:19:59;;;;;;;14.48;5.53;;;7.00;99.90;;;;;;5045181;28;20118;-77
2022/11/24 08:22:25;;;;;;;17.85;5.75;;;7.10;99.90;;;;;;5043366;28;20063;-77
2022/11/24 08:24:51;;;;;;;10.23;4.93;;;7.10;99.90;;;;;;5043653;28;20040;-77
2022/11/24 08:27:18;;;;;;;12.95;4.90;;;7.10;99.90;;;;;;5038564;28;20135;-78
2022/11/24 08:29:44;;;;;;;10.48;4.72;;;7.20;99.90;;;;;;5043639;28;20071;-78
2022/11/24 08:32:11;;;;;;;16.17;5.45;;;7.20;99.90;;;;;;5046658;28;20056;-79
2022/11/24 08:34:37;;;;;;;10.35;5.25;;;7.30;99.90;;;;;;5045414;28;20044;-78
2022/11/24 08:37:04;;;;;;;14.30;6.78;;;7.40;99.90;;;;;;5046086;28;20378;-78
2022/11/24 08:39:30;;;;;;;15.00;5.47;;;7.50;99.90;;;;;;5043645;28;20132;-78
2022/11/24 08:41:56;;;;;;;12.68;5.68;;;7.50;99.90;;;;;;5044333;28;20144;-78
2022/11/24 08:44:22;;;;;;;18.65;5.40;;;7.50;99.90;;;;;;5044212;28;20053;-78
2022/11/24 08:46:48;;;;;;;8.73;4.90;;;7.60;99.90;;;;;;5045988;28;20088;-78
2022/11/24 08:49:14;;;;;;;11.40;6.38;;;7.60;99.90;;;;;;5043980;28;20053;-78
2022/11/24 08:51:41;;;;;;;11.20;5.13;;;7.60;99.90;;;;;;5039946;28;20106;-79
2022/11/24 08:54:09;;;;;;;13.80;4.90;;;7.70;99.90;;;;;;5043473;28;20143;-78
2022/11/24 08:56:35;;;;;;;11.52;5.72;;;7.80;99.90;;;;;;5043043;28;20064;-78
2022/11/24 08:59:01;;;;;;;9.60;5.00;;;7.90;99.90;;;;;;5075953;28;20045;-78
2022/11/24 09:01:27;;;;;;;12.95;5.68;;;7.90;99.90;;;;;;5046370;28;20055;-79
2022/11/24 09:03:53;;;;;;;12.30;5.00;;;8.00;99.90;;;;;;5045073;28;20593;-78
2022/11/24 09:06:22;;;;;;;18.02;5.20;;;8.00;99.90;;;;;;5044973;28;20072;-78
2022/11/24 09:08:48;;;;;;;13.75;5.72;;;8.00;99.90;;;;;;5043455;28;20629;-78
2022/11/24 09:11:15;;;;;;;10.00;5.03;;;8.10;99.90;;;;;;5045370;28;20052;-78
2022/11/24 09:13:41;;;;;;;15.90;5.85;;;8.20;99.90;;;;;;5045263;28;20052;-78
2022/11/24 09:16:12;;;;;;;15.50;5.65;;;8.20;99.90;;;;;;5045663;28;20210;-81
2022/11/24 09:18:38;;;;;;;5.78;4.57;;;8.30;99.90;;;;;;5044851;28;20041;-78
2022/11/24 09:21:15;;;;;;;10.23;5.18;;;8.30;99.90;;;;;;5043782;28;20047;-80
2022/11/24 09:23:42;;;;;;;9.48;4.50;;;8.40;99.90;;;;;;5044602;28;20048;-79
2022/11/24 09:26:29;;;;;;;8.35;5.35;;;8.40;99.90;;;;;;5042574;28;20526;-78
2022/11/24 09:28:56;;;;;;;8.85;4.60;;;8.50;99.90;;;;;;5043988;28;20048;-78
2022/11/24 09:31:24;;;;;;;8.25;4.13;;;8.80;99.90;;;;;;5044590;28;20057;-78
2022/11/24 09:33:51;;;;;;;13.48;4.75;;;8.60;99.90;;;;;;5043327;28;20045;-78
2022/11/24 09:36:17;;;;;;;7.10;3.67;;;8.70;99.90;;;;;;5044738;28;20040;-77
2022/11/24 09:38:43;;;;;;;8.30;3.20;;;8.80;99.90;;;;;;5043595;28;20033;-77
2022/11/24 09:41:47;;;;;;;6.07;3.35;;;8.80;99.90;;;;;;5046164;28;20045;-78
2022/11/24 09:44:50;;;;;;;8.13;3.85;;;8.90;99.90;;;;;;5077969;28;20060;-78
2022/11/24 09:47:40;;;;;;;4.90;3.55;;;8.90;99.90;;;;;;5044652;28;20053;-79
2022/11/24 09:50:19;;;;;;;6.68;3.20;;;8.90;99.90;;;;;;5044286;28;20040;-77
2022/11/24 09:52:58;;;;;;;11.20;3.58;;;9.00;99.90;;;;;;5044529;28;20817;-77
2022/11/24 09:55:41;;;;;;;4.70;3.75;;;9.00;99.90;;;;;;5043663;28;20059;-77
2022/11/24 09:58:12;;;;;;;8.05;3.75;;;9.00;99.90;;;;;;5042864;28;20844;-78
2022/11/24 10:00:40;;;;;;;9.13;3.90;;;9.10;99.90;;;;;;5044984;28;20052;-82
2022/11/24 10:03:14;;;;;;;8.63;3.58;;;9.10;99.90;;;;;;5077767;28;20051;-78
2022/11/24 10:05:40;;;;;;;7.10;3.55;;;9.10;99.90;;;;;;5038500;28;20044;-78
2022/11/24 10:08:16;;;;;;;8.45;3.35;;;9.10;99.90;;;;;;5041826;28;20052;-76
2022/11/24 10:10:59;;;;;;;8.95;3.50;;;9.20;99.90;;;;;;5041905;28;20048;-76
2022/11/24 10:13:59;;;;;;;7.38;3.15;;;9.30;99.90;;;;;;5040996;28;20037;-77
2022/11/24 10:16:28;;;;;;;3.83;2.58;;;9.30;99.90;;;;;;5041732;28;20044;-76
2022/11/24 10:18:56;;;;;;;3.28;2.40;;;9.30;99.90;;;;;;5042549;28;20060;-76
2022/11/24 10:21:22;;;;;;;3.88;2.42;;;9.30;99.90;;;;;;5042213;28;21049;-76
2022/11/24 10:24:01;;;;;;;8.45;2.28;;;9.40;99.90;;;;;;5045462;28;20048;-76
2022/11/24 10:26:38;;;;;;;5.57;2.30;;;9.40;99.90;;;;;;5039836;28;20414;-76
2022/11/24 10:29:23;;;;;;;4.93;1.92;;;9.40;99.90;;;;;;5041104;28;20175;-77
2022/11/24 10:31:53;;;;;;;4.43;2.15;;;9.50;99.90;;;;;;5040034;28;20147;-76
2022/11/24 10:34:28;;;;;;;5.63;2.20;;;9.50;99.90;;;;;;5042006;28;20562;-76
2022/11/24 10:37:15;;;;;;;3.92;1.98;;;9.50;99.90;;;;;;5041754;28;20538;-76
2022/11/24 10:39:47;;;;;;;1.95;1.50;;;9.60;99.90;;;;;;5045855;28;20041;-75
2022/11/24 10:42:23;;;;;;;1.98;1.80;;;9.60;99.90;;;;;;5045619;28;20041;-76
2022/11/24 10:45:02;;;;;;;5.80;2.45;;;9.70;99.90;;;;;;5075051;28;21779;-76
2022/11/24 10:47:29;;;;;;;4.90;2.35;;;9.70;99.90;;;;;;5044722;28;20049;-76
2022/11/24 10:50:00;;;;;;;2.65;1.33;;;9.80;99.90;;;;;;5045386;28;20146;-76
2022/11/24 10:52:29;;;;;;;3.70;1.80;;;9.70;99.90;;;;;;5045939;28;20047;-76
2022/11/24 10:55:00;;;;;;;3.22;1.83;;;9.80;99.90;;;;;;5044990;28;20054;-76
2022/11/24 10:57:40;;;;;;;5.28;2.67;;;9.80;99.90;;;;;;5046366;28;20045;-76
2022/11/24 11:00:17;;;;;;;6.93;2.00;;;9.70;99.90;;;;;;5045276;28;20060;-76
2022/11/24 11:02:44;;;;;;;4.70;3.05;;;9.70;99.90;;;;;;5044951;28;20048;-77
2022/11/24 11:05:43;;;;;;;3.72;1.80;;;9.70;99.90;;;;;;5043663;28;20047;-78
2022/11/24 11:08:13;;;;;;;5.47;2.17;;;9.70;99.90;;;;;;5045851;28;20044;-78
2022/11/24 11:10:40;;;;;;;4.63;3.30;;;9.70;99.90;;;;;;5045965;28;20080;-77
2022/11/24 11:13:27;;;;;;;5.00;2.38;;;9.70;99.90;;;;;;5043588;28;20044;-77
2022/11/24 11:15:54;;;;;;;8.32;2.90;;;9.70;99.90;;;;;;5045665;28;20812;-77
2022/11/24 11:18:21;;;;;;;4.88;2.05;;;9.70;99.90;;;;;;5060328;28;20128;-77
2022/11/24 11:21:00;;;;;;;9.25;2.88;;;9.70;99.90;;;;;;5041575;28;20151;-76
2022/11/24 11:23:36;;;;;;;3.05;2.38;;;9.80;99.90;;;;;;5050572;28;20040;-76
2022/11/24 11:26:30;;;;;;;3.75;2.42;;;9.90;99.90;;;;;;5078640;27;20056;-76
2022/11/24 11:29:02;;;;;;;5.10;3.30;;;9.90;99.90;;;;;;5036019;28;20052;-80
2022/11/24 11:31:31;;;;;;;3.65;2.05;;;9.90;99.90;;;;;;5044863;28;20470;-79
2022/11/24 11:34:12;;;;;;;8.65;2.45;;;10.00;99.90;;;;;;5045399;28;20921;-76
2022/11/24 11:36:39;;;;;;;4.53;2.88;;;10.00;99.90;;;;;;5046864;28;20048;-77
2022/11/24 11:39:05;;;;;;;5.53;2.50;;;10.10;99.90;;;;;;5045172;28;20155;-76
2022/11/24 11:41:39;;;;;;;4.15;2.28;;;10.10;99.90;;;;;;5045949;28;20052;-77
2022/11/24 11:44:38;;;;;;;4.25;2.47;;;10.10;99.90;;;;;;5044991;28;20114;-76
2022/11/24 11:47:26;;;;;;;6.15;3.53;;;10.20;99.90;;;;;;5048332;28;20045;-77
2022/11/24 11:49:52;;;;;;;7.55;4.40;;;10.20;99.90;;;;;;5045874;28;20044;-78
2022/11/24 11:52:34;;;;;;;6.28;3.20;;;10.20;99.90;;;;;;5044974;28;20055;-76
2022/11/24 11:55:49;;;;;;;3.08;1.60;;;10.30;99.90;;;;;;5045264;28;20633;-77
2022/11/24 11:58:36;;;;;;;4.53;2.40;;;10.40;99.90;;;;;;5019369;28;20053;-76
2022/11/24 12:01:39;;;;;;;5.20;2.83;;;10.40;99.90;;;;;;5058875;28;20079;-77
2022/11/24 12:04:29;;;;;;;3.72;2.30;;;10.50;99.90;;;;;;5040825;28;20098;-77
2022/11/24 12:07:23;;;;;;;9.07;2.90;;;10.50;99.90;;;;;;5043335;28;20177;-77
2022/11/24 12:10:05;;;;;;;9.98;2.45;;;10.60;99.90;;;;;;5041971;28;20863;-77
2022/11/24 12:12:53;;;;;;;4.35;2.40;;;10.60;99.90;;;;;;5044051;28;20114;-78
2022/11/24 12:15:31;;;;;;;4.05;2.58;;;10.70;99.90;;;;;;5045794;28;20056;-77
2022/11/24 12:18:24;;;;;;;6.72;2.42;;;10.70;99.90;;;;;;5042070;28;20156;-77
2022/11/24 12:21:07;;;;;;;5.00;2.53;;;10.80;99.90;;;;;;5041017;28;20037;-78
2022/11/24 12:23:44;;;;;;;;;;;10.80;99.90;;;;;;5043600;28;20065;-77
2022/11/24 12:26:21;;;;;;;8.57;2.42;;;10.80;99.90;;;;;;5045280;28;19975;-77
2022/11/24 12:29:05;;;;;;;6.00;2.22;;;10.80;99.90;;;;;;5043601;28;20152;-77
2022/11/24 12:31:49;;;;;;;5.80;2.72;;;10.90;99.90;;;;;;5042793;28;20053;-77
2022/11/24 12:34:14;;;;;;;6.28;2.70;;;10.90;99.90;;;;;;5045088;28;20044;-77
2022/11/24 12:37:02;;;;;;;7.57;3.53;;;10.90;99.90;;;;;;5043049;28;20044;-76
2022/11/24 12:39:27;;;;;;;5.65;2.85;;;11.00;99.90;;;;;;5041225;28;20044;-76
2022/11/24 12:42:08;;;;;;;4.20;1.77;;;11.00;99.90;;;;;;5043817;28;20051;-76
2022/11/24 12:44:46;;;;;;;8.05;3.17;;;11.00;99.90;;;;;;5043095;28;20566;-76
2022/11/24 12:47:32;;;;;;;6.78;3.03;;;11.00;99.90;;;;;;5044336;28;20053;-76
2022/11/24 12:50:14;;;;;;;11.07;3.10;;;11.00;99.90;;;;;;5045012;28;20059;-77
2022/11/24 12:52:49;;;;;;;11.75;4.22;;;11.10;99.90;;;;;;5042277;28;20088;-77
2022/11/24 12:55:19;;;;;;;6.13;3.28;;;11.00;99.90;;;;;;5044775;28;20052;-77
2022/11/24 12:58:13;;;;;;;4.47;2.72;;;11.10;99.90;;;;;;5042032;28;20048;-76
2022/11/24 13:00:50;;;;;;;5.32;2.63;;;11.00;99.90;;;;;;5044102;28;20051;-77
2022/11/24 13:03:46;;;;;;;5.63;3.30;;;11.00;99.90;;;;;;5044556;28;20045;-76
2022/11/24 13:06:17;;;;;;;6.90;3.78;;;11.10;99.90;;;;;;5055624;28;20052;-76
2022/11/24 13:08:43;;;;;;;7.07;3.90;;;11.10;99.90;;;;;;5044360;28;20087;-76